createdAt,value
2022-09-10T00:00:58.113Z,14.70
2022-09-10T00:04:05.377Z,12.70
2022-09-10T00:07:11.324Z,13.70
2022-09-10T00:10:18.810Z,12.70
2022-09-10T00:13:25.341Z,13.30
2022-09-10T00:16:32.314Z,13.90
2022-09-10T00:19:38.221Z,11.80
2022-09-10T00:22:44.096Z,12.00
2022-09-10T00:25:51.185Z,12.70
2022-09-10T00:28:59.659Z,13.80
2022-09-10T00:32:06.085Z,15.80
2022-09-10T00:35:12.313Z,15.00
2022-09-10T00:38:19.136Z,12.50
2022-09-10T00:41:27.059Z,14.60
2022-09-10T00:44:57.091Z,13.20
2022-09-10T00:48:06.730Z,14.50
2022-09-10T00:51:13.210Z,13.20
2022-09-10T00:54:21.472Z,13.50
2022-09-10T00:57:30.446Z,12.50
2022-09-10T01:00:37.031Z,16.60
2022-09-10T01:03:44.741Z,12.90
2022-09-10T01:06:52.530Z,13.70
2022-09-10T01:10:00.058Z,12.20
2022-09-10T01:13:21.914Z,13.40
2022-09-10T01:16:35.906Z,17.00
2022-09-10T01:20:24.999Z,13.20
2022-09-10T01:24:05.470Z,13.30
2022-09-10T01:27:32.942Z,12.50
2022-09-10T01:30:44.932Z,12.70
2022-09-10T01:33:57.347Z,12.50
2022-09-10T01:37:10.257Z,12.70
2022-09-10T01:40:18.955Z,13.80
2022-09-10T01:43:24.937Z,16.30
2022-09-10T01:49:51.771Z,14.60
2022-09-10T01:56:22.039Z,15.30
2022-09-10T01:59:34.725Z,14.50
2022-09-10T02:02:44.750Z,14.30
2022-09-10T02:05:54.463Z,13.30
2022-09-10T02:09:01.848Z,12.50
2022-09-10T02:12:09.077Z,12.40
2022-09-10T02:15:15.343Z,16.70
2022-09-10T02:18:22.550Z,14.30
2022-09-10T02:21:28.912Z,14.20
2022-09-10T02:24:34.787Z,13.30
2022-09-10T02:27:40.731Z,13.70
2022-09-10T02:30:48.405Z,14.90
2022-09-10T02:33:54.801Z,15.90
2022-09-10T02:37:00.984Z,17.00
2022-09-10T02:40:09.099Z,15.00
2022-09-10T02:43:14.977Z,14.90
2022-09-10T02:46:21.734Z,13.50
2022-09-10T02:49:28.438Z,14.60
2022-09-10T02:52:34.563Z,15.20
2022-09-10T02:58:58.748Z,16.00
2022-09-10T03:02:05.130Z,15.80
2022-09-10T03:05:12.378Z,13.60
2022-09-10T03:08:18.261Z,17.10
2022-09-10T03:11:27.706Z,16.10
2022-09-10T03:14:34.310Z,16.40
2022-09-10T03:17:40.173Z,16.50
2022-09-10T03:20:46.194Z,16.80
2022-09-10T03:23:53.938Z,16.30
2022-09-10T03:27:00.089Z,15.90
2022-09-10T03:30:06.550Z,17.90
2022-09-10T03:33:14.050Z,20.20
2022-09-10T03:36:21.094Z,18.20
2022-09-10T03:39:27.101Z,19.10
2022-09-10T03:45:37.236Z,21.20
2022-09-10T03:48:43.866Z,24.30
2022-09-10T03:51:50.002Z,19.30
2022-09-10T03:54:56.171Z,19.70
2022-09-10T03:58:02.183Z,18.70
2022-09-10T04:04:12.965Z,19.20
2022-09-10T04:07:18.819Z,19.80
2022-09-10T04:10:25.231Z,22.50
2022-09-10T04:13:31.818Z,21.00
2022-09-10T04:16:37.807Z,21.50
2022-09-10T04:22:47.962Z,20.60
2022-09-10T04:25:54.090Z,22.90
2022-09-10T04:32:04.985Z,23.10
2022-09-10T04:35:15.520Z,22.30
2022-09-10T04:38:21.513Z,23.70
2022-09-10T04:44:33.176Z,26.60
2022-09-10T04:47:39.366Z,23.20
2022-09-10T04:51:05.472Z,23.90
2022-09-10T04:54:13.638Z,23.50
2022-09-10T04:57:19.490Z,23.10
2022-09-10T05:00:26.720Z,24.60
2022-09-10T05:03:32.678Z,25.20
2022-09-10T05:06:38.703Z,24.00
2022-09-10T05:12:49.343Z,28.10
2022-09-10T05:15:55.201Z,23.50
2022-09-10T05:19:01.263Z,25.40
2022-09-10T05:25:12.408Z,29.10
2022-09-10T05:28:18.271Z,26.60
2022-09-10T05:31:24.224Z,25.40
2022-09-10T05:34:30.182Z,26.60
2022-09-10T05:37:36.247Z,25.10
2022-09-10T05:43:49.451Z,20.60
2022-09-10T05:49:59.645Z,24.20
2022-09-10T05:53:05.579Z,24.40
2022-09-10T05:56:12.030Z,20.50
2022-09-10T05:59:17.978Z,21.00
2022-09-10T06:02:24.526Z,24.10
2022-09-10T06:05:30.498Z,20.70
2022-09-10T06:08:37.055Z,20.20
2022-09-10T06:11:43.421Z,18.90
2022-09-10T06:14:49.685Z,27.50
2022-09-10T06:17:56.823Z,33.10
2022-09-10T06:21:08.840Z,31.50
2022-09-10T06:24:15.842Z,31.20
2022-09-10T06:27:23.425Z,41.30
2022-09-10T06:30:29.331Z,23.10
2022-09-10T06:33:36.189Z,21.60
2022-09-10T06:36:43.740Z,31.40
2022-09-10T06:39:49.914Z,32.60
2022-09-10T06:42:56.058Z,27.40
2022-09-10T06:46:02.075Z,19.30
2022-09-10T06:52:13.243Z,25.10
2022-09-10T06:55:19.298Z,27.70
2022-09-10T07:01:31.058Z,23.90
2022-09-10T07:04:37.200Z,20.10
2022-09-10T07:07:43.623Z,26.90
2022-09-10T07:10:49.606Z,27.20
2022-09-10T07:17:00.479Z,31.00
2022-09-10T07:20:07.730Z,22.80
2022-09-10T07:23:14.799Z,17.70
2022-09-10T07:26:21.473Z,16.40
2022-09-10T07:29:31.416Z,20.60
2022-09-10T07:32:37.423Z,17.50
2022-09-10T07:35:43.356Z,35.00
2022-09-10T07:38:52.546Z,30.20
2022-09-10T07:41:59.738Z,29.80
2022-09-10T07:45:07.281Z,26.10
2022-09-10T07:48:13.484Z,17.10
2022-09-10T07:51:19.402Z,16.30
2022-09-10T07:54:25.266Z,15.40
2022-09-10T07:57:31.710Z,23.50
2022-09-10T08:00:37.567Z,29.30
2022-09-10T08:03:43.831Z,19.60
2022-09-10T08:06:49.707Z,14.50
2022-09-10T08:09:55.546Z,24.70
2022-09-10T08:13:01.410Z,17.20
2022-09-10T08:16:12.225Z,15.50
2022-09-10T08:19:18.294Z,18.10
2022-09-10T08:25:28.401Z,19.40
2022-09-10T08:28:34.543Z,23.20
2022-09-10T08:31:41.337Z,19.40
2022-09-10T08:34:47.487Z,18.50
2022-09-10T08:37:53.639Z,19.30
2022-09-10T08:41:00.868Z,18.80
2022-09-10T08:44:13.661Z,20.30
2022-09-10T08:47:30.130Z,34.40
2022-09-10T08:50:42.270Z,18.80
2022-09-10T08:53:55.922Z,19.40
2022-09-10T08:57:03.785Z,22.80
2022-09-10T09:00:16.186Z,20.00
2022-09-10T09:03:28.670Z,20.80
2022-09-10T09:06:39.740Z,22.10
2022-09-10T09:09:45.921Z,25.00
2022-09-10T09:13:17.545Z,23.40
2022-09-10T09:16:52.410Z,22.80
2022-09-10T09:20:06.165Z,23.00
2022-09-10T09:23:21.426Z,24.00
2022-09-10T09:26:36.133Z,36.40
2022-09-10T09:29:47.296Z,21.20
2022-09-10T09:32:53.649Z,16.40
2022-09-10T09:36:03.193Z,19.80
2022-09-10T09:39:18.275Z,17.00
2022-09-10T09:42:30.508Z,22.50
2022-09-10T09:45:42.606Z,12.80
2022-09-10T09:48:53.641Z,17.10
2022-09-10T09:52:02.995Z,21.70
2022-09-10T09:55:18.904Z,12.90
2022-09-10T09:58:34.779Z,12.70
2022-09-10T10:01:42.995Z,10.20
2022-09-10T10:05:04.990Z,9.70
2022-09-10T10:08:31.045Z,9.30
2022-09-10T10:11:49.900Z,9.00
2022-09-10T10:14:55.800Z,9.20
2022-09-10T10:18:03.493Z,9.50
2022-09-10T10:21:19.856Z,8.60
2022-09-10T10:24:34.170Z,11.40
2022-09-10T10:27:45.431Z,8.70
2022-09-10T10:30:56.829Z,10.30
2022-09-10T10:34:22.146Z,13.70
2022-09-10T10:37:39.490Z,14.70
2022-09-10T10:40:50.870Z,20.90
2022-09-10T10:44:09.460Z,12.90
2022-09-10T10:47:29.339Z,10.50
2022-09-10T10:50:47.838Z,11.80
2022-09-10T10:54:15.374Z,17.50
2022-09-10T10:57:32.385Z,17.90
2022-09-10T11:00:45.594Z,16.80
2022-09-10T11:04:01.173Z,13.50
2022-09-10T11:07:14.219Z,12.60
2022-09-10T11:10:25.285Z,11.90
2022-09-10T11:13:38.073Z,10.80
2022-09-10T11:16:49.107Z,10.80
2022-09-10T11:20:27.082Z,11.00
2022-09-10T11:23:39.712Z,10.10
2022-09-10T11:26:51.267Z,12.70
2022-09-10T11:30:03.821Z,12.00
2022-09-10T11:33:18.002Z,10.70
2022-09-10T11:36:29.569Z,13.60
2022-09-10T11:39:39.860Z,11.50
2022-09-10T11:42:51.429Z,13.20
2022-09-10T11:46:03.280Z,12.10
2022-09-10T11:49:18.211Z,12.10
2022-09-10T11:52:25.895Z,11.60
2022-09-10T11:55:56.074Z,10.50
2022-09-10T11:59:19.586Z,11.40
2022-09-10T12:03:03.708Z,11.20
2022-09-10T12:06:15.237Z,10.10
2022-09-10T12:09:28.109Z,10.70
2022-09-10T12:12:41.938Z,9.60
2022-09-10T12:15:57.073Z,14.60
2022-09-10T12:19:05.747Z,13.00
2022-09-10T12:22:21.829Z,13.90
2022-09-10T12:25:34.377Z,15.40
2022-09-10T12:29:07.382Z,14.20
2022-09-10T12:32:30.954Z,10.80
2022-09-10T12:35:48.706Z,9.90
2022-09-10T12:39:10.668Z,10.90
2022-09-10T12:42:36.931Z,9.80
2022-09-10T12:46:05.774Z,10.70
2022-09-10T12:49:17.802Z,9.40
2022-09-10T12:52:32.356Z,8.70
2022-09-10T12:55:53.427Z,9.60
2022-09-10T12:59:18.446Z,9.10
2022-09-10T13:02:31.978Z,10.30
2022-09-10T13:05:50.627Z,8.30
2022-09-10T13:08:57.444Z,10.20
2022-09-10T13:12:08.333Z,11.70
2022-09-10T13:15:22.567Z,10.40
2022-09-10T13:18:31.654Z,8.60
2022-09-10T13:21:57.064Z,8.80
2022-09-10T13:28:52.355Z,9.90
2022-09-10T13:32:03.918Z,8.60
2022-09-10T13:35:41.305Z,8.30
2022-09-10T13:39:20.866Z,8.40
2022-09-10T13:42:55.706Z,8.50
2022-09-10T13:46:07.813Z,8.10
2022-09-10T13:49:20.338Z,8.20
2022-09-10T13:52:30.414Z,10.40
2022-09-10T13:55:37.192Z,8.40
2022-09-10T13:58:49.857Z,9.80
2022-09-10T14:01:56.881Z,10.20
2022-09-10T14:05:02.815Z,11.40
2022-09-10T14:11:22.082Z,9.20
2022-09-10T14:14:31.661Z,15.00
2022-09-10T14:17:43.157Z,9.70
2022-09-10T14:20:49.393Z,10.60
2022-09-10T14:23:57.294Z,9.50
2022-09-10T14:27:16.788Z,9.50
2022-09-10T14:30:29.594Z,9.20
2022-09-10T14:33:39.668Z,9.70
2022-09-10T14:36:45.703Z,12.20
2022-09-10T14:43:14.057Z,10.20
2022-09-10T14:46:50.214Z,8.90
2022-09-10T14:49:57.421Z,9.70
2022-09-10T14:53:03.786Z,8.90
2022-09-10T14:56:24.202Z,8.60
2022-09-10T14:59:33.803Z,7.50
2022-09-10T15:02:41.999Z,7.70
2022-09-10T15:05:48.365Z,7.50
2022-09-10T15:08:56.347Z,6.60
2022-09-10T15:12:07.219Z,7.50
2022-09-10T15:15:17.799Z,6.10
2022-09-10T15:18:23.881Z,7.20
2022-09-10T15:21:31.007Z,11.40
2022-09-10T15:26:57.038Z,6.70
2022-09-10T15:30:02.918Z,7.80
2022-09-10T15:36:13.788Z,7.40
2022-09-10T15:39:19.780Z,6.00
2022-09-10T15:45:29.823Z,8.80
2022-09-10T15:48:36.265Z,9.90
2022-09-10T15:51:42.503Z,11.30
2022-09-10T15:54:48.363Z,9.90
2022-09-10T15:57:55.037Z,12.30
2022-09-10T16:01:05.044Z,12.40
2022-09-10T16:04:11.166Z,8.80
2022-09-10T16:07:17.031Z,11.40
2022-09-10T16:10:23.373Z,18.60
2022-09-10T16:13:29.567Z,8.80
2022-09-10T16:16:37.402Z,8.70
2022-09-10T16:19:43.279Z,9.40
2022-09-10T16:22:49.122Z,9.90
2022-09-10T16:25:56.052Z,10.80
2022-09-10T16:29:03.713Z,9.60
2022-09-10T16:32:09.715Z,10.20
2022-09-10T16:38:19.776Z,9.10
2022-09-10T16:41:27.122Z,9.80
2022-09-10T16:44:33.749Z,9.10
2022-09-10T16:47:39.611Z,9.60
2022-09-10T16:50:45.465Z,12.20
2022-09-10T16:53:57.705Z,10.70
2022-09-10T16:57:03.545Z,11.00
2022-09-10T17:00:14.091Z,12.10
2022-09-10T17:03:20.342Z,10.30
2022-09-10T17:06:28.062Z,11.80
2022-09-10T17:09:33.951Z,14.20
2022-09-10T17:12:40.078Z,11.80
2022-09-10T17:15:46.016Z,12.30
2022-09-10T17:22:01.853Z,11.80
2022-09-10T17:25:09.194Z,12.40
2022-09-10T17:28:16.150Z,11.70
2022-09-10T17:31:22.103Z,10.00
2022-09-10T17:37:33.718Z,13.40
2022-09-10T17:40:39.592Z,12.10
2022-09-10T17:43:46.390Z,11.20
2022-09-10T17:46:52.477Z,10.10
2022-09-10T17:49:58.486Z,11.20
2022-09-10T17:56:11.610Z,12.70
2022-09-10T17:59:17.458Z,10.60
2022-09-10T18:02:23.373Z,10.80
2022-09-10T18:05:29.285Z,11.30
2022-09-10T18:08:36.216Z,10.80
2022-09-10T18:11:43.197Z,12.70
2022-09-10T18:14:49.067Z,12.40
2022-09-10T18:17:55.841Z,10.50
2022-09-10T18:21:13.392Z,10.80
2022-09-10T18:24:22.505Z,11.70
2022-09-10T18:27:28.422Z,10.20
2022-09-10T18:30:34.605Z,10.00
2022-09-10T18:33:41.952Z,17.20
2022-09-10T18:36:48.033Z,10.90
2022-09-10T18:42:59.747Z,4.60
2022-09-10T18:46:06.397Z,5.70
2022-09-10T18:49:17.869Z,5.50
2022-09-10T18:52:27.310Z,6.90
2022-09-10T18:55:33.177Z,5.60
2022-09-10T18:58:39.286Z,4.30
2022-09-10T19:05:10.321Z,5.80
2022-09-10T19:11:24.588Z,5.30
2022-09-10T19:14:32.359Z,4.00
2022-09-10T19:17:38.245Z,5.00
2022-09-10T19:20:44.120Z,3.90
2022-09-10T19:23:53.413Z,3.80
2022-09-10T19:27:02.167Z,7.10
2022-09-10T19:30:10.354Z,5.50
2022-09-10T19:33:16.995Z,6.20
2022-09-10T19:36:22.886Z,7.00
2022-09-10T19:39:28.814Z,8.00
2022-09-10T19:42:34.675Z,6.60
2022-09-10T19:45:41.219Z,6.60
2022-09-10T19:48:47.987Z,9.20
2022-09-10T19:51:54.201Z,6.40
2022-09-10T19:55:00.584Z,4.60
2022-09-10T19:58:06.442Z,7.50
2022-09-10T20:01:14.394Z,6.80
2022-09-10T20:04:20.402Z,8.40
2022-09-10T20:07:26.798Z,6.10
2022-09-10T20:10:33.731Z,12.00
2022-09-10T20:13:39.813Z,9.80
2022-09-10T20:19:51.528Z,7.20
2022-09-10T20:23:00.479Z,7.90
2022-09-10T20:26:12.913Z,10.20
2022-09-10T20:29:20.611Z,6.00
2022-09-10T20:32:27.128Z,8.20
2022-09-10T20:35:32.985Z,5.40
2022-09-10T20:38:39.153Z,7.20
2022-09-10T20:41:45.980Z,8.60
2022-09-10T20:44:51.884Z,9.80
2022-09-10T20:47:59.914Z,6.60
2022-09-10T20:51:06.302Z,8.80
2022-09-10T20:54:15.199Z,7.90
2022-09-10T20:57:22.633Z,9.50
2022-09-10T21:00:28.531Z,10.20
2022-09-10T21:03:34.790Z,8.40
2022-09-10T21:06:40.918Z,9.40
2022-09-10T21:12:51.003Z,7.50
2022-09-10T21:16:04.645Z,9.30
2022-09-10T21:19:13.781Z,7.00
2022-09-10T21:22:20.361Z,8.50
2022-09-10T21:25:26.226Z,7.40
2022-09-10T21:28:32.124Z,8.10
2022-09-10T21:31:38.286Z,7.10
2022-09-10T21:37:48.578Z,9.70
2022-09-10T21:44:06.225Z,8.50
2022-09-10T21:47:12.167Z,11.80
2022-09-10T21:50:18.387Z,10.60
2022-09-10T21:53:24.250Z,11.90
2022-09-10T21:56:30.676Z,10.50
2022-09-10T21:59:36.541Z,9.60
2022-09-10T22:02:42.470Z,7.90
2022-09-10T22:05:48.391Z,7.20
2022-09-10T22:08:58.583Z,7.50
2022-09-10T22:12:04.863Z,7.60
2022-09-10T22:15:12.298Z,9.90
2022-09-10T22:18:18.190Z,7.90
2022-09-10T22:21:24.653Z,8.50
2022-09-10T22:24:30.626Z,8.50
2022-09-10T22:27:36.518Z,8.80
2022-09-10T22:30:42.435Z,8.20
2022-09-10T22:33:53.111Z,9.00
2022-09-10T22:36:58.979Z,9.90
2022-09-10T22:40:05.346Z,11.70
2022-09-10T22:43:11.246Z,11.30
2022-09-10T22:46:17.308Z,8.00
2022-09-10T22:52:27.933Z,8.50
2022-09-10T22:55:34.878Z,8.00
2022-09-10T22:58:41.527Z,10.00
2022-09-10T23:01:48.594Z,8.20
2022-09-10T23:04:54.507Z,8.50
2022-09-10T23:08:00.377Z,8.90
2022-09-10T23:11:15.327Z,9.20
2022-09-10T23:14:22.245Z,9.30
2022-09-10T23:17:28.099Z,10.00
2022-09-10T23:20:33.982Z,8.20
2022-09-10T23:23:39.829Z,9.00
2022-09-10T23:26:46.342Z,8.00
2022-09-10T23:29:52.229Z,10.00
2022-09-10T23:32:58.098Z,10.20
2022-09-10T23:36:04.530Z,8.40
2022-09-10T23:39:13.322Z,7.30
2022-09-10T23:42:19.187Z,8.40
2022-09-10T23:45:25.049Z,9.20
2022-09-10T23:48:30.941Z,9.10
2022-09-10T23:51:37.221Z,8.20
2022-09-10T23:54:43.115Z,7.90
2022-09-10T23:57:48.990Z,9.10
